sensor_id;sensor_type;location;lat;lon;timestamp;P1;durP1;ratioP1;P2;durP2;ratioP2
55364;SDS011;41245;45.384;20.390;2023-12-07T00:02:04;80.20;;;30.95;;
55364;SDS011;41245;45.384;20.390;2023-12-07T00:04:29;82.00;;;29.42;;
55364;SDS011;41245;45.384;20.390;2023-12-07T00:06:55;77.88;;;29.42;;
55364;SDS011;41245;45.384;20.390;2023-12-07T00:09:21;78.88;;;28.65;;
55364;SDS011;41245;45.384;20.390;2023-12-07T00:11:46;75.93;;;28.05;;
55364;SDS011;41245;45.384;20.390;2023-12-07T00:14:12;71.80;;;28.80;;
55364;SDS011;41245;45.384;20.390;2023-12-07T00:16:38;70.45;;;28.60;;
55364;SDS011;41245;45.384;20.390;2023-12-07T00:19:03;72.50;;;28.55;;
55364;SDS011;41245;45.384;20.390;2023-12-07T00:21:29;69.63;;;28.58;;
55364;SDS011;41245;45.384;20.390;2023-12-07T00:23:55;72.00;;;28.02;;
55364;SDS011;41245;45.384;20.390;2023-12-07T00:26:20;60.08;;;24.90;;
55364;SDS011;41245;45.384;20.390;2023-12-07T00:28:46;58.55;;;26.27;;
55364;SDS011;41245;45.384;20.390;2023-12-07T00:31:12;60.05;;;25.63;;
55364;SDS011;41245;45.384;20.390;2023-12-07T00:33:38;59.40;;;24.92;;
55364;SDS011;41245;45.384;20.390;2023-12-07T00:36:03;59.83;;;26.98;;
55364;SDS011;41245;45.384;20.390;2023-12-07T00:38:29;59.90;;;25.77;;
55364;SDS011;41245;45.384;20.390;2023-12-07T00:40:57;59.78;;;24.35;;
55364;SDS011;41245;45.384;20.390;2023-12-07T00:43:23;53.08;;;23.77;;
55364;SDS011;41245;45.384;20.390;2023-12-07T00:45:48;55.00;;;23.05;;
55364;SDS011;41245;45.384;20.390;2023-12-07T00:48:14;48.17;;;22.35;;
55364;SDS011;41245;45.384;20.390;2023-12-07T00:50:40;57.70;;;24.02;;
55364;SDS011;41245;45.384;20.390;2023-12-07T00:53:06;56.30;;;22.98;;
55364;SDS011;41245;45.384;20.390;2023-12-07T00:55:33;57.25;;;24.08;;
55364;SDS011;41245;45.384;20.390;2023-12-07T00:57:59;56.95;;;23.38;;
55364;SDS011;41245;45.384;20.390;2023-12-07T01:00:26;58.22;;;24.35;;
55364;SDS011;41245;45.384;20.390;2023-12-07T01:02:52;45.28;;;21.98;;
55364;SDS011;41245;45.384;20.390;2023-12-07T01:05:19;49.38;;;21.52;;
55364;SDS011;41245;45.384;20.390;2023-12-07T01:07:45;51.08;;;20.27;;
55364;SDS011;41245;45.384;20.390;2023-12-07T01:10:11;45.22;;;20.92;;
55364;SDS011;41245;45.384;20.390;2023-12-07T01:12:37;47.00;;;20.75;;
55364;SDS011;41245;45.384;20.390;2023-12-07T01:15:03;49.35;;;21.15;;
55364;SDS011;41245;45.384;20.390;2023-12-07T01:17:29;41.05;;;20.45;;
55364;SDS011;41245;45.384;20.390;2023-12-07T01:19:55;39.50;;;19.00;;
55364;SDS011;41245;45.384;20.390;2023-12-07T01:22:22;41.45;;;17.85;;
55364;SDS011;41245;45.384;20.390;2023-12-07T01:24:48;39.20;;;17.50;;
55364;SDS011;41245;45.384;20.390;2023-12-07T01:27:14;47.55;;;20.23;;
55364;SDS011;41245;45.384;20.390;2023-12-07T01:29:40;39.30;;;19.13;;
55364;SDS011;41245;45.384;20.390;2023-12-07T01:32:06;46.45;;;20.00;;
55364;SDS011;41245;45.384;20.390;2023-12-07T01:34:32;45.50;;;19.85;;
55364;SDS011;41245;45.384;20.390;2023-12-07T01:36:58;45.83;;;20.67;;
55364;SDS011;41245;45.384;20.390;2023-12-07T01:39:24;45.22;;;19.88;;
55364;SDS011;41245;45.384;20.390;2023-12-07T01:41:51;41.55;;;19.25;;
55364;SDS011;41245;45.384;20.390;2023-12-07T01:44:17;40.08;;;18.13;;
55364;SDS011;41245;45.384;20.390;2023-12-07T01:46:43;40.95;;;20.30;;
55364;SDS011;41245;45.384;20.390;2023-12-07T01:49:09;45.22;;;18.73;;
55364;SDS011;41245;45.384;20.390;2023-12-07T01:51:35;39.00;;;17.60;;
55364;SDS011;41245;45.384;20.390;2023-12-07T01:54:01;41.53;;;19.38;;
55364;SDS011;41245;45.384;20.390;2023-12-07T01:56:29;41.05;;;18.13;;
55364;SDS011;41245;45.384;20.390;2023-12-07T01:58:57;40.22;;;18.25;;
55364;SDS011;41245;45.384;20.390;2023-12-07T02:01:23;38.58;;;18.10;;
55364;SDS011;41245;45.384;20.390;2023-12-07T02:03:49;34.53;;;17.50;;
55364;SDS011;41245;45.384;20.390;2023-12-07T02:06:15;37.30;;;16.33;;
55364;SDS011;41245;45.384;20.390;2023-12-07T02:08:43;42.33;;;17.73;;
55364;SDS011;41245;45.384;20.390;2023-12-07T02:11:09;34.00;;;17.20;;
55364;SDS011;41245;45.384;20.390;2023-12-07T02:13:39;33.97;;;17.83;;
55364;SDS011;41245;45.384;20.390;2023-12-07T02:16:07;40.70;;;17.67;;
55364;SDS011;41245;45.384;20.390;2023-12-07T02:18:38;38.45;;;16.85;;
55364;SDS011;41245;45.384;20.390;2023-12-07T02:23:43;39.25;;;15.82;;
55364;SDS011;41245;45.384;20.390;2023-12-07T02:26:20;36.78;;;15.77;;
55364;SDS011;41245;45.384;20.390;2023-12-07T02:28:46;33.03;;;15.45;;
55364;SDS011;41245;45.384;20.390;2023-12-07T02:31:13;32.25;;;15.98;;
55364;SDS011;41245;45.384;20.390;2023-12-07T02:33:39;30.30;;;15.15;;
55364;SDS011;41245;45.384;20.390;2023-12-07T02:36:05;29.67;;;15.90;;
55364;SDS011;41245;45.384;20.390;2023-12-07T02:38:31;37.70;;;16.52;;
55364;SDS011;41245;45.384;20.390;2023-12-07T02:40:58;33.22;;;15.60;;
55364;SDS011;41245;45.384;20.390;2023-12-07T02:43:24;30.20;;;13.77;;
55364;SDS011;41245;45.384;20.390;2023-12-07T02:45:51;34.75;;;16.35;;
55364;SDS011;41245;45.384;20.390;2023-12-07T02:48:17;32.45;;;15.13;;
55364;SDS011;41245;45.384;20.390;2023-12-07T02:50:43;31.92;;;14.57;;
55364;SDS011;41245;45.384;20.390;2023-12-07T02:53:09;30.70;;;15.00;;
55364;SDS011;41245;45.384;20.390;2023-12-07T02:55:35;29.02;;;15.07;;
55364;SDS011;41245;45.384;20.390;2023-12-07T02:58:01;28.75;;;14.10;;
55364;SDS011;41245;45.384;20.390;2023-12-07T03:00:27;29.92;;;14.57;;
55364;SDS011;41245;45.384;20.390;2023-12-07T03:02:53;25.83;;;13.90;;
55364;SDS011;41245;45.384;20.390;2023-12-07T03:05:19;31.70;;;15.85;;
55364;SDS011;41245;45.384;20.390;2023-12-07T03:07:48;26.77;;;13.93;;
55364;SDS011;41245;45.384;20.390;2023-12-07T03:10:14;25.45;;;13.57;;
55364;SDS011;41245;45.384;20.390;2023-12-07T03:12:40;28.73;;;14.13;;
55364;SDS011;41245;45.384;20.390;2023-12-07T03:15:06;26.25;;;13.65;;
55364;SDS011;41245;45.384;20.390;2023-12-07T03:17:32;29.05;;;14.48;;
55364;SDS011;41245;45.384;20.390;2023-12-07T03:19:58;27.88;;;14.35;;
55364;SDS011;41245;45.384;20.390;2023-12-07T03:22:25;27.55;;;14.52;;
55364;SDS011;41245;45.384;20.390;2023-12-07T03:24:51;22.75;;;13.35;;
55364;SDS011;41245;45.384;20.390;2023-12-07T03:27:18;21.55;;;12.27;;
55364;SDS011;41245;45.384;20.390;2023-12-07T03:29:44;22.17;;;13.18;;
55364;SDS011;41245;45.384;20.390;2023-12-07T03:32:10;26.35;;;13.85;;
55364;SDS011;41245;45.384;20.390;2023-12-07T03:34:36;24.25;;;13.85;;
55364;SDS011;41245;45.384;20.390;2023-12-07T03:37:03;25.50;;;13.52;;
55364;SDS011;41245;45.384;20.390;2023-12-07T03:39:29;22.65;;;12.60;;
55364;SDS011;41245;45.384;20.390;2023-12-07T03:41:57;25.15;;;13.95;;
55364;SDS011;41245;45.384;20.390;2023-12-07T03:44:23;28.52;;;14.77;;
55364;SDS011;41245;45.384;20.390;2023-12-07T03:46:51;26.55;;;13.48;;
55364;SDS011;41245;45.384;20.390;2023-12-07T03:49:17;26.08;;;13.10;;
55364;SDS011;41245;45.384;20.390;2023-12-07T03:51:43;22.70;;;12.98;;
55364;SDS011;41245;45.384;20.390;2023-12-07T03:54:10;24.77;;;12.27;;
55364;SDS011;41245;45.384;20.390;2023-12-07T03:56:36;25.15;;;13.00;;
55364;SDS011;41245;45.384;20.390;2023-12-07T03:59:02;25.40;;;12.60;;
55364;SDS011;41245;45.384;20.390;2023-12-07T04:01:28;22.55;;;13.90;;
55364;SDS011;41245;45.384;20.390;2023-12-07T04:03:55;26.27;;;13.65;;
55364;SDS011;41245;45.384;20.390;2023-12-07T04:06:22;28.42;;;13.82;;
55364;SDS011;41245;45.384;20.390;2023-12-07T04:08:48;25.40;;;12.52;;
55364;SDS011;41245;45.384;20.390;2023-12-07T04:11:14;29.08;;;12.52;;
55364;SDS011;41245;45.384;20.390;2023-12-07T04:13:40;26.55;;;13.52;;
55364;SDS011;41245;45.384;20.390;2023-12-07T04:16:07;25.65;;;13.68;;
55364;SDS011;41245;45.384;20.390;2023-12-07T04:18:33;22.98;;;12.07;;
55364;SDS011;41245;45.384;20.390;2023-12-07T04:20:59;26.13;;;12.65;;
55364;SDS011;41245;45.384;20.390;2023-12-07T04:23:25;27.67;;;14.15;;
55364;SDS011;41245;45.384;20.390;2023-12-07T04:25:51;23.48;;;13.85;;
55364;SDS011;41245;45.384;20.390;2023-12-07T04:28:17;21.70;;;12.70;;
55364;SDS011;41245;45.384;20.390;2023-12-07T04:30:43;25.60;;;13.82;;
55364;SDS011;41245;45.384;20.390;2023-12-07T04:33:09;26.90;;;14.75;;
55364;SDS011;41245;45.384;20.390;2023-12-07T04:35:35;24.30;;;12.43;;
55364;SDS011;41245;45.384;20.390;2023-12-07T04:38:02;24.55;;;12.70;;
55364;SDS011;41245;45.384;20.390;2023-12-07T04:40:28;26.08;;;14.80;;
55364;SDS011;41245;45.384;20.390;2023-12-07T04:42:54;28.45;;;15.77;;
55364;SDS011;41245;45.384;20.390;2023-12-07T04:45:20;24.73;;;13.80;;
55364;SDS011;41245;45.384;20.390;2023-12-07T04:47:46;26.05;;;14.32;;
55364;SDS011;41245;45.384;20.390;2023-12-07T04:50:12;30.38;;;15.23;;
55364;SDS011;41245;45.384;20.390;2023-12-07T04:52:38;23.55;;;13.18;;
55364;SDS011;41245;45.384;20.390;2023-12-07T04:55:05;27.30;;;15.35;;
55364;SDS011;41245;45.384;20.390;2023-12-07T04:57:33;28.67;;;15.02;;
55364;SDS011;41245;45.384;20.390;2023-12-07T04:59:59;30.55;;;16.08;;
55364;SDS011;41245;45.384;20.390;2023-12-07T05:02:25;29.08;;;15.02;;
55364;SDS011;41245;45.384;20.390;2023-12-07T05:04:52;26.50;;;14.18;;
55364;SDS011;41245;45.384;20.390;2023-12-07T05:07:19;26.75;;;14.85;;
55364;SDS011;41245;45.384;20.390;2023-12-07T05:09:45;32.83;;;15.60;;
55364;SDS011;41245;45.384;20.390;2023-12-07T05:12:11;29.85;;;16.38;;
55364;SDS011;41245;45.384;20.390;2023-12-07T05:14:37;31.45;;;16.45;;
55364;SDS011;41245;45.384;20.390;2023-12-07T05:17:03;31.60;;;15.00;;
55364;SDS011;41245;45.384;20.390;2023-12-07T05:19:30;30.50;;;16.85;;
55364;SDS011;41245;45.384;20.390;2023-12-07T05:21:56;47.72;;;21.40;;
55364;SDS011;41245;45.384;20.390;2023-12-07T05:24:22;57.63;;;24.45;;
55364;SDS011;41245;45.384;20.390;2023-12-07T05:26:48;58.40;;;23.17;;
55364;SDS011;41245;45.384;20.390;2023-12-07T05:29:14;44.25;;;20.77;;
55364;SDS011;41245;45.384;20.390;2023-12-07T05:31:41;35.35;;;17.67;;
55364;SDS011;41245;45.384;20.390;2023-12-07T05:34:07;38.13;;;16.67;;
55364;SDS011;41245;45.384;20.390;2023-12-07T05:36:33;35.42;;;16.33;;
55364;SDS011;41245;45.384;20.390;2023-12-07T05:38:59;32.58;;;16.80;;
55364;SDS011;41245;45.384;20.390;2023-12-07T05:41:25;42.58;;;19.88;;
55364;SDS011;41245;45.384;20.390;2023-12-07T05:43:52;39.58;;;18.40;;
55364;SDS011;41245;45.384;20.390;2023-12-07T05:46:18;39.05;;;20.50;;
55364;SDS011;41245;45.384;20.390;2023-12-07T05:48:44;39.72;;;21.13;;
55364;SDS011;41245;45.384;20.390;2023-12-07T05:51:12;32.55;;;15.27;;
55364;SDS011;41245;45.384;20.390;2023-12-07T05:53:39;38.78;;;18.85;;
55364;SDS011;41245;45.384;20.390;2023-12-07T05:56:05;38.63;;;19.27;;
55364;SDS011;41245;45.384;20.390;2023-12-07T05:58:31;31.63;;;16.98;;
55364;SDS011;41245;45.384;20.390;2023-12-07T06:00:57;30.73;;;16.52;;
55364;SDS011;41245;45.384;20.390;2023-12-07T06:03:24;32.35;;;17.25;;
55364;SDS011;41245;45.384;20.390;2023-12-07T06:05:51;30.45;;;16.17;;
55364;SDS011;41245;45.384;20.390;2023-12-07T06:08:17;38.75;;;18.73;;
55364;SDS011;41245;45.384;20.390;2023-12-07T06:10:43;34.67;;;17.25;;
55364;SDS011;41245;45.384;20.390;2023-12-07T06:13:09;37.80;;;19.58;;
55364;SDS011;41245;45.384;20.390;2023-12-07T06:15:35;39.63;;;18.17;;
55364;SDS011;41245;45.384;20.390;2023-12-07T06:18:02;34.97;;;17.65;;
55364;SDS011;41245;45.384;20.390;2023-12-07T06:20:28;39.10;;;19.10;;
55364;SDS011;41245;45.384;20.390;2023-12-07T06:22:54;39.83;;;17.83;;
55364;SDS011;41245;45.384;20.390;2023-12-07T06:25:20;39.60;;;20.15;;
55364;SDS011;41245;45.384;20.390;2023-12-07T06:27:47;44.75;;;22.02;;
55364;SDS011;41245;45.384;20.390;2023-12-07T06:30:13;40.95;;;19.48;;
55364;SDS011;41245;45.384;20.390;2023-12-07T06:32:39;41.88;;;20.92;;
55364;SDS011;41245;45.384;20.390;2023-12-07T06:35:05;44.95;;;21.33;;
55364;SDS011;41245;45.384;20.390;2023-12-07T06:37:31;45.83;;;22.10;;
55364;SDS011;41245;45.384;20.390;2023-12-07T06:39:57;44.95;;;22.13;;
55364;SDS011;41245;45.384;20.390;2023-12-07T06:42:29;42.00;;;20.08;;
55364;SDS011;41245;45.384;20.390;2023-12-07T06:44:55;52.65;;;21.92;;
55364;SDS011;41245;45.384;20.390;2023-12-07T06:47:21;41.38;;;21.50;;
55364;SDS011;41245;45.384;20.390;2023-12-07T06:49:48;43.40;;;21.92;;
55364;SDS011;41245;45.384;20.390;2023-12-07T06:52:14;46.53;;;21.08;;
55364;SDS011;41245;45.384;20.390;2023-12-07T06:54:40;46.80;;;21.58;;
55364;SDS011;41245;45.384;20.390;2023-12-07T06:57:06;45.58;;;22.73;;
55364;SDS011;41245;45.384;20.390;2023-12-07T06:59:33;42.35;;;21.65;;
55364;SDS011;41245;45.384;20.390;2023-12-07T07:01:59;49.25;;;23.17;;
55364;SDS011;41245;45.384;20.390;2023-12-07T07:04:25;43.17;;;21.92;;
55364;SDS011;41245;45.384;20.390;2023-12-07T07:06:51;43.72;;;20.77;;
55364;SDS011;41245;45.384;20.390;2023-12-07T07:09:17;44.17;;;22.45;;
55364;SDS011;41245;45.384;20.390;2023-12-07T07:11:50;49.90;;;23.60;;
55364;SDS011;41245;45.384;20.390;2023-12-07T07:14:16;52.33;;;24.63;;
55364;SDS011;41245;45.384;20.390;2023-12-07T07:16:42;48.67;;;24.08;;
55364;SDS011;41245;45.384;20.390;2023-12-07T07:19:08;50.17;;;25.17;;
55364;SDS011;41245;45.384;20.390;2023-12-07T07:21:34;43.65;;;21.55;;
55364;SDS011;41245;45.384;20.390;2023-12-07T07:24:00;52.90;;;25.85;;
55364;SDS011;41245;45.384;20.390;2023-12-07T07:26:27;51.08;;;24.10;;
55364;SDS011;41245;45.384;20.390;2023-12-07T07:28:53;47.45;;;23.75;;
55364;SDS011;41245;45.384;20.390;2023-12-07T07:31:19;45.65;;;23.35;;
55364;SDS011;41245;45.384;20.390;2023-12-07T07:33:45;41.40;;;21.48;;
55364;SDS011;41245;45.384;20.390;2023-12-07T07:36:14;52.38;;;23.65;;
55364;SDS011;41245;45.384;20.390;2023-12-07T07:38:41;42.95;;;22.55;;
55364;SDS011;41245;45.384;20.390;2023-12-07T07:41:07;51.92;;;23.65;;
55364;SDS011;41245;45.384;20.390;2023-12-07T07:43:34;49.20;;;22.33;;
55364;SDS011;41245;45.384;20.390;2023-12-07T07:46:00;45.67;;;23.15;;
55364;SDS011;41245;45.384;20.390;2023-12-07T07:48:26;63.78;;;26.73;;
55364;SDS011;41245;45.384;20.390;2023-12-07T07:50:52;53.78;;;25.35;;
55364;SDS011;41245;45.384;20.390;2023-12-07T07:53:18;54.13;;;25.85;;
55364;SDS011;41245;45.384;20.390;2023-12-07T07:55:44;45.38;;;22.35;;
55364;SDS011;41245;45.384;20.390;2023-12-07T07:58:10;63.22;;;28.80;;
55364;SDS011;41245;45.384;20.390;2023-12-07T08:00:36;61.70;;;28.60;;
55364;SDS011;41245;45.384;20.390;2023-12-07T08:03:02;64.32;;;28.25;;
55364;SDS011;41245;45.384;20.390;2023-12-07T08:05:28;55.40;;;26.70;;
55364;SDS011;41245;45.384;20.390;2023-12-07T08:07:54;52.03;;;25.52;;
55364;SDS011;41245;45.384;20.390;2023-12-07T08:10:20;48.15;;;24.17;;
55364;SDS011;41245;45.384;20.390;2023-12-07T08:12:47;42.83;;;21.70;;
55364;SDS011;41245;45.384;20.390;2023-12-07T08:15:13;49.05;;;22.98;;
55364;SDS011;41245;45.384;20.390;2023-12-07T08:17:42;45.33;;;22.48;;
55364;SDS011;41245;45.384;20.390;2023-12-07T08:20:08;48.78;;;22.48;;
55364;SDS011;41245;45.384;20.390;2023-12-07T08:22:39;44.58;;;20.80;;
55364;SDS011;41245;45.384;20.390;2023-12-07T08:25:09;48.00;;;20.67;;
55364;SDS011;41245;45.384;20.390;2023-12-07T08:27:37;40.28;;;20.98;;
55364;SDS011;41245;45.384;20.390;2023-12-07T08:30:04;47.10;;;21.65;;
55364;SDS011;41245;45.384;20.390;2023-12-07T08:32:30;38.13;;;20.48;;
55364;SDS011;41245;45.384;20.390;2023-12-07T08:34:56;41.60;;;18.77;;
55364;SDS011;41245;45.384;20.390;2023-12-07T08:37:22;37.78;;;18.48;;
55364;SDS011;41245;45.384;20.390;2023-12-07T08:39:48;37.70;;;18.65;;
55364;SDS011;41245;45.384;20.390;2023-12-07T08:42:14;46.47;;;21.33;;
55364;SDS011;41245;45.384;20.390;2023-12-07T08:44:42;41.25;;;19.27;;
55364;SDS011;41245;45.384;20.390;2023-12-07T08:47:08;38.72;;;19.42;;
55364;SDS011;41245;45.384;20.390;2023-12-07T08:49:35;43.95;;;20.42;;
55364;SDS011;41245;45.384;20.390;2023-12-07T08:52:01;47.47;;;20.42;;
55364;SDS011;41245;45.384;20.390;2023-12-07T08:54:27;44.75;;;21.50;;
55364;SDS011;41245;45.384;20.390;2023-12-07T08:56:53;44.25;;;22.23;;
55364;SDS011;41245;45.384;20.390;2023-12-07T08:59:19;40.92;;;18.88;;
55364;SDS011;41245;45.384;20.390;2023-12-07T09:01:45;39.33;;;20.38;;
55364;SDS011;41245;45.384;20.390;2023-12-07T09:04:11;37.05;;;18.52;;
55364;SDS011;41245;45.384;20.390;2023-12-07T09:06:37;36.33;;;18.17;;
55364;SDS011;41245;45.384;20.390;2023-12-07T09:09:04;32.05;;;16.65;;
55364;SDS011;41245;45.384;20.390;2023-12-07T09:11:30;40.58;;;18.55;;
55364;SDS011;41245;45.384;20.390;2023-12-07T09:13:56;37.92;;;17.70;;
55364;SDS011;41245;45.384;20.390;2023-12-07T09:16:22;44.13;;;18.67;;
55364;SDS011;41245;45.384;20.390;2023-12-07T09:18:49;31.17;;;16.13;;
55364;SDS011;41245;45.384;20.390;2023-12-07T09:21:15;37.70;;;16.17;;
55364;SDS011;41245;45.384;20.390;2023-12-07T09:23:41;38.03;;;17.85;;
55364;SDS011;41245;45.384;20.390;2023-12-07T09:26:07;34.63;;;17.60;;
55364;SDS011;41245;45.384;20.390;2023-12-07T09:28:33;30.02;;;15.98;;
55364;SDS011;41245;45.384;20.390;2023-12-07T09:30:59;38.65;;;17.20;;
55364;SDS011;41245;45.384;20.390;2023-12-07T09:33:26;30.42;;;17.00;;
55364;SDS011;41245;45.384;20.390;2023-12-07T09:35:52;41.55;;;19.13;;
55364;SDS011;41245;45.384;20.390;2023-12-07T09:38:18;35.28;;;17.88;;
55364;SDS011;41245;45.384;20.390;2023-12-07T09:40:44;42.08;;;18.98;;
55364;SDS011;41245;45.384;20.390;2023-12-07T09:43:11;40.45;;;19.83;;
55364;SDS011;41245;45.384;20.390;2023-12-07T09:45:37;38.85;;;20.95;;
55364;SDS011;41245;45.384;20.390;2023-12-07T09:48:03;38.45;;;19.02;;
55364;SDS011;41245;45.384;20.390;2023-12-07T09:50:30;35.33;;;18.42;;
55364;SDS011;41245;45.384;20.390;2023-12-07T09:52:57;34.28;;;17.98;;
55364;SDS011;41245;45.384;20.390;2023-12-07T09:55:23;34.08;;;18.35;;
55364;SDS011;41245;45.384;20.390;2023-12-07T09:57:50;38.20;;;17.13;;
55364;SDS011;41245;45.384;20.390;2023-12-07T10:00:16;32.20;;;15.23;;
55364;SDS011;41245;45.384;20.390;2023-12-07T10:02:43;32.53;;;16.30;;
55364;SDS011;41245;45.384;20.390;2023-12-07T10:05:10;33.45;;;15.90;;
55364;SDS011;41245;45.384;20.390;2023-12-07T10:07:41;30.30;;;15.90;;
55364;SDS011;41245;45.384;20.390;2023-12-07T10:10:07;35.53;;;17.40;;
55364;SDS011;41245;45.384;20.390;2023-12-07T10:12:40;29.92;;;15.98;;
55364;SDS011;41245;45.384;20.390;2023-12-07T10:15:11;32.22;;;16.17;;
55364;SDS011;41245;45.384;20.390;2023-12-07T10:17:57;32.58;;;15.65;;
55364;SDS011;41245;45.384;20.390;2023-12-07T10:20:25;30.45;;;15.13;;
55364;SDS011;41245;45.384;20.390;2023-12-07T10:25:29;26.30;;;14.25;;
55364;SDS011;41245;45.384;20.390;2023-12-07T10:27:55;31.10;;;15.32;;
55364;SDS011;41245;45.384;20.390;2023-12-07T10:30:21;22.45;;;12.88;;
55364;SDS011;41245;45.384;20.390;2023-12-07T10:32:51;27.05;;;13.75;;
55364;SDS011;41245;45.384;20.390;2023-12-07T10:35:18;22.40;;;12.23;;
55364;SDS011;41245;45.384;20.390;2023-12-07T10:37:45;25.88;;;13.52;;
55364;SDS011;41245;45.384;20.390;2023-12-07T10:40:12;38.63;;;17.17;;
55364;SDS011;41245;45.384;20.390;2023-12-07T10:42:38;33.15;;;14.75;;
55364;SDS011;41245;45.384;20.390;2023-12-07T10:45:06;27.90;;;13.75;;
55364;SDS011;41245;45.384;20.390;2023-12-07T10:47:34;28.52;;;13.85;;
55364;SDS011;41245;45.384;20.390;2023-12-07T10:50:01;29.77;;;15.10;;
55364;SDS011;41245;45.384;20.390;2023-12-07T10:52:28;31.83;;;14.77;;
55364;SDS011;41245;45.384;20.390;2023-12-07T10:55:10;34.60;;;15.73;;
55364;SDS011;41245;45.384;20.390;2023-12-07T10:57:38;33.45;;;16.20;;
55364;SDS011;41245;45.384;20.390;2023-12-07T11:00:08;28.20;;;14.48;;
55364;SDS011;41245;45.384;20.390;2023-12-07T11:02:34;41.08;;;14.98;;
55364;SDS011;41245;45.384;20.390;2023-12-07T11:05:00;26.52;;;13.40;;
55364;SDS011;41245;45.384;20.390;2023-12-07T11:07:31;28.02;;;13.82;;
55364;SDS011;41245;45.384;20.390;2023-12-07T11:10:01;26.67;;;13.68;;
55364;SDS011;41245;45.384;20.390;2023-12-07T11:15:14;22.20;;;11.90;;
55364;SDS011;41245;45.384;20.390;2023-12-07T11:17:54;19.73;;;11.60;;
55364;SDS011;41245;45.384;20.390;2023-12-07T11:20:32;19.73;;;10.65;;
55364;SDS011;41245;45.384;20.390;2023-12-07T11:22:59;23.23;;;11.27;;
55364;SDS011;41245;45.384;20.390;2023-12-07T11:25:25;17.20;;;10.07;;
55364;SDS011;41245;45.384;20.390;2023-12-07T11:27:59;19.08;;;10.65;;
55364;SDS011;41245;45.384;20.390;2023-12-07T11:30:25;21.02;;;10.70;;
55364;SDS011;41245;45.384;20.390;2023-12-07T11:32:51;18.27;;;9.63;;
55364;SDS011;41245;45.384;20.390;2023-12-07T11:35:17;19.75;;;10.25;;
55364;SDS011;41245;45.384;20.390;2023-12-07T11:40:30;23.27;;;10.15;;
55364;SDS011;41245;45.384;20.390;2023-12-07T11:42:58;21.85;;;10.90;;
55364;SDS011;41245;45.384;20.390;2023-12-07T11:45:40;22.25;;;11.65;;
55364;SDS011;41245;45.384;20.390;2023-12-07T11:48:13;26.65;;;13.15;;
55364;SDS011;41245;45.384;20.390;2023-12-07T11:51:23;21.60;;;11.85;;
55364;SDS011;41245;45.384;20.390;2023-12-07T11:53:33;22.27;;;12.15;;
55364;SDS011;41245;45.384;20.390;2023-12-07T11:56:00;24.83;;;10.85;;
55364;SDS011;41245;45.384;20.390;2023-12-07T11:58:27;18.55;;;10.10;;
55364;SDS011;41245;45.384;20.390;2023-12-07T12:00:54;19.45;;;10.82;;
55364;SDS011;41245;45.384;20.390;2023-12-07T12:03:21;24.92;;;10.63;;
55364;SDS011;41245;45.384;20.390;2023-12-07T12:05:48;18.55;;;10.02;;
55364;SDS011;41245;45.384;20.390;2023-12-07T12:08:14;17.52;;;9.52;;
55364;SDS011;41245;45.384;20.390;2023-12-07T12:10:40;19.75;;;11.02;;
55364;SDS011;41245;45.384;20.390;2023-12-07T12:13:10;22.92;;;10.77;;
55364;SDS011;41245;45.384;20.390;2023-12-07T12:15:37;24.60;;;10.48;;
55364;SDS011;41245;45.384;20.390;2023-12-07T12:18:04;19.95;;;10.13;;
55364;SDS011;41245;45.384;20.390;2023-12-07T12:20:31;20.02;;;10.30;;
55364;SDS011;41245;45.384;20.390;2023-12-07T12:22:57;17.83;;;10.05;;
55364;SDS011;41245;45.384;20.390;2023-12-07T12:25:24;21.95;;;9.43;;
55364;SDS011;41245;45.384;20.390;2023-12-07T12:27:55;15.85;;;9.25;;
55364;SDS011;41245;45.384;20.390;2023-12-07T12:30:21;14.90;;;8.32;;
55364;SDS011;41245;45.384;20.390;2023-12-07T12:32:48;15.02;;;8.95;;
55364;SDS011;41245;45.384;20.390;2023-12-07T12:35:15;17.75;;;7.80;;
55364;SDS011;41245;45.384;20.390;2023-12-07T12:37:42;14.32;;;8.60;;
55364;SDS011;41245;45.384;20.390;2023-12-07T12:40:11;14.85;;;8.82;;
55364;SDS011;41245;45.384;20.390;2023-12-07T12:42:41;16.42;;;9.68;;
55364;SDS011;41245;45.384;20.390;2023-12-07T12:45:08;13.30;;;7.95;;
55364;SDS011;41245;45.384;20.390;2023-12-07T12:47:36;15.80;;;8.95;;
55364;SDS011;41245;45.384;20.390;2023-12-07T12:50:02;15.70;;;8.38;;
55364;SDS011;41245;45.384;20.390;2023-12-07T12:52:32;18.90;;;9.73;;
55364;SDS011;41245;45.384;20.390;2023-12-07T12:54:58;16.95;;;9.30;;
55364;SDS011;41245;45.384;20.390;2023-12-07T12:57:24;13.90;;;8.43;;
55364;SDS011;41245;45.384;20.390;2023-12-07T12:59:50;17.33;;;10.15;;
55364;SDS011;41245;45.384;20.390;2023-12-07T13:02:17;20.25;;;10.57;;
55364;SDS011;41245;45.384;20.390;2023-12-07T13:04:43;21.23;;;9.80;;
55364;SDS011;41245;45.384;20.390;2023-12-07T13:07:12;14.10;;;8.15;;
55364;SDS011;41245;45.384;20.390;2023-12-07T13:09:39;17.05;;;9.15;;
55364;SDS011;41245;45.384;20.390;2023-12-07T13:12:05;23.80;;;10.88;;
55364;SDS011;41245;45.384;20.390;2023-12-07T13:14:32;24.92;;;11.00;;
55364;SDS011;41245;45.384;20.390;2023-12-07T13:17:04;28.50;;;13.25;;
55364;SDS011;41245;45.384;20.390;2023-12-07T13:19:30;19.15;;;10.75;;
55364;SDS011;41245;45.384;20.390;2023-12-07T13:21:56;19.42;;;11.70;;
55364;SDS011;41245;45.384;20.390;2023-12-07T13:24:22;20.05;;;10.40;;
55364;SDS011;41245;45.384;20.390;2023-12-07T13:26:48;22.70;;;11.27;;
55364;SDS011;41245;45.384;20.390;2023-12-07T13:29:14;21.98;;;11.55;;
55364;SDS011;41245;45.384;20.390;2023-12-07T13:31:40;21.05;;;11.13;;
55364;SDS011;41245;45.384;20.390;2023-12-07T13:34:07;26.15;;;13.55;;
55364;SDS011;41245;45.384;20.390;2023-12-07T13:36:33;21.08;;;13.25;;
55364;SDS011;41245;45.384;20.390;2023-12-07T13:39:00;27.17;;;12.73;;
55364;SDS011;41245;45.384;20.390;2023-12-07T13:41:29;29.88;;;14.82;;
55364;SDS011;41245;45.384;20.390;2023-12-07T13:43:55;23.75;;;13.38;;
55364;SDS011;41245;45.384;20.390;2023-12-07T13:46:22;25.00;;;13.20;;
55364;SDS011;41245;45.384;20.390;2023-12-07T13:48:48;28.33;;;13.23;;
55364;SDS011;41245;45.384;20.390;2023-12-07T13:51:15;25.95;;;13.98;;
55364;SDS011;41245;45.384;20.390;2023-12-07T13:53:41;25.17;;;14.20;;
55364;SDS011;41245;45.384;20.390;2023-12-07T13:56:08;29.77;;;15.23;;
55364;SDS011;41245;45.384;20.390;2023-12-07T13:58:34;37.63;;;17.63;;
55364;SDS011;41245;45.384;20.390;2023-12-07T14:01:01;29.88;;;14.40;;
55364;SDS011;41245;45.384;20.390;2023-12-07T14:03:27;26.23;;;13.95;;
55364;SDS011;41245;45.384;20.390;2023-12-07T14:05:53;28.00;;;13.50;;
55364;SDS011;41245;45.384;20.390;2023-12-07T14:08:19;25.60;;;13.90;;
55364;SDS011;41245;45.384;20.390;2023-12-07T14:10:45;26.33;;;14.98;;
55364;SDS011;41245;45.384;20.390;2023-12-07T14:13:12;29.90;;;14.73;;
55364;SDS011;41245;45.384;20.390;2023-12-07T14:15:38;21.90;;;12.27;;
55364;SDS011;41245;45.384;20.390;2023-12-07T14:18:05;22.83;;;10.75;;